createdAt,value
2018-10-18T00:01:49.184Z,99.90
2018-10-18T00:04:17.420Z,99.90
2018-10-18T00:06:45.632Z,99.90
2018-10-18T00:09:13.852Z,99.90
2018-10-18T00:11:42.112Z,99.90
2018-10-18T00:14:10.380Z,99.90
2018-10-18T00:16:38.746Z,99.90
2018-10-18T00:19:06.964Z,99.90
2018-10-18T00:21:35.184Z,99.90
2018-10-18T00:24:03.851Z,99.90
2018-10-18T00:26:32.036Z,99.90
2018-10-18T00:29:00.265Z,99.90
2018-10-18T00:31:29.148Z,99.90
2018-10-18T00:33:57.411Z,99.90
2018-10-18T00:36:25.600Z,99.90
2018-10-18T00:38:53.828Z,99.90
2018-10-18T00:41:22.050Z,99.90
2018-10-18T00:43:50.239Z,99.90
2018-10-18T00:46:18.463Z,99.90
2018-10-18T00:48:46.701Z,99.90
2018-10-18T00:51:14.919Z,99.90
2018-10-18T00:53:43.140Z,99.90
2018-10-18T00:56:11.451Z,99.90
2018-10-18T00:58:39.612Z,99.90
2018-10-18T01:01:07.836Z,99.90
2018-10-18T01:03:36.039Z,99.90
2018-10-18T01:06:04.346Z,99.90
2018-10-18T01:08:32.499Z,99.90
2018-10-18T01:11:00.736Z,99.90
2018-10-18T01:13:28.937Z,99.90
2018-10-18T01:15:57.124Z,99.90
2018-10-18T01:18:25.369Z,99.90
2018-10-18T01:20:53.840Z,99.90
2018-10-18T01:23:22.036Z,99.90
2018-10-18T01:25:50.274Z,99.90
2018-10-18T01:28:18.496Z,99.90
2018-10-18T01:30:46.748Z,99.90
2018-10-18T01:33:14.948Z,99.90
2018-10-18T01:35:43.216Z,99.90
2018-10-18T01:38:11.528Z,99.90
2018-10-18T01:40:39.699Z,99.90
2018-10-18T01:43:08.244Z,99.90
2018-10-18T01:45:36.452Z,99.90
2018-10-18T01:48:05.143Z,99.90
2018-10-18T01:50:33.313Z,99.90
2018-10-18T01:53:01.568Z,99.90
2018-10-18T01:55:29.789Z,99.90
2018-10-18T01:57:58.001Z,99.90
2018-10-18T02:00:26.207Z,99.90
2018-10-18T02:02:54.436Z,99.90
2018-10-18T02:05:22.648Z,99.90
2018-10-18T02:07:50.892Z,99.90
2018-10-18T02:10:19.130Z,99.90
2018-10-18T02:12:47.356Z,99.90
2018-10-18T02:15:15.588Z,99.90
2018-10-18T02:17:43.819Z,99.90
2018-10-18T02:20:12.012Z,99.90
2018-10-18T02:22:40.803Z,99.90
2018-10-18T02:25:09.072Z,99.90
2018-10-18T02:27:37.226Z,99.90
2018-10-18T02:30:05.800Z,99.90
2018-10-18T02:32:33.992Z,99.90
2018-10-18T02:35:02.221Z,99.90
2018-10-18T02:37:30.432Z,99.90
2018-10-18T02:39:58.631Z,99.90
2018-10-18T02:42:26.836Z,99.90
2018-10-18T02:44:55.183Z,99.90
2018-10-18T02:47:23.535Z,99.90
2018-10-18T02:49:51.800Z,99.90
2018-10-18T02:52:20.106Z,99.90
2018-10-18T02:54:48.369Z,99.90
2018-10-18T02:57:16.576Z,99.90
2018-10-18T02:59:44.808Z,99.90
2018-10-18T03:02:13.028Z,99.90
2018-10-18T03:04:41.356Z,99.90
2018-10-18T03:07:09.576Z,99.90
2018-10-18T03:09:37.779Z,99.90
2018-10-18T03:12:06.148Z,99.90
2018-10-18T03:14:34.325Z,99.90
2018-10-18T03:17:02.619Z,99.90
2018-10-18T03:19:30.823Z,99.90
2018-10-18T03:21:59.076Z,99.90
2018-10-18T03:24:27.325Z,99.90
2018-10-18T03:26:55.784Z,99.90
2018-10-18T03:29:24.011Z,99.90
2018-10-18T03:31:52.225Z,99.90
2018-10-18T03:34:20.528Z,99.90
2018-10-18T03:36:48.722Z,99.90
2018-10-18T03:39:16.955Z,99.90
2018-10-18T03:41:45.154Z,99.90
2018-10-18T03:44:13.394Z,99.90
2018-10-18T03:46:41.801Z,99.90
2018-10-18T03:49:10.019Z,99.90
2018-10-18T03:51:38.250Z,99.90
2018-10-18T03:54:06.570Z,99.90
2018-10-18T03:56:34.964Z,99.90
2018-10-18T03:59:03.189Z,99.90
2018-10-18T04:01:31.467Z,99.90
2018-10-18T04:03:59.678Z,99.90
2018-10-18T04:06:27.914Z,99.90
2018-10-18T04:08:56.185Z,99.90
2018-10-18T04:11:24.648Z,99.90
2018-10-18T04:13:52.882Z,99.90
2018-10-18T04:16:21.107Z,99.90
2018-10-18T04:18:49.393Z,99.90
2018-10-18T04:21:17.596Z,99.90
2018-10-18T04:23:45.844Z,99.90
2018-10-18T04:26:14.024Z,99.90
2018-10-18T04:28:42.252Z,99.90
2018-10-18T04:31:10.464Z,99.90
2018-10-18T04:33:38.944Z,99.90
2018-10-18T04:36:07.243Z,99.90
2018-10-18T04:38:35.388Z,99.90
2018-10-18T04:41:03.632Z,99.90
2018-10-18T04:43:31.852Z,99.90
2018-10-18T04:46:00.057Z,99.90
2018-10-18T04:48:28.384Z,99.90
2018-10-18T04:50:56.868Z,99.90
2018-10-18T04:53:25.101Z,99.90
2018-10-18T04:55:53.324Z,99.90
2018-10-18T04:58:21.535Z,99.90
2018-10-18T05:00:49.863Z,99.90
2018-10-18T05:03:18.077Z,99.90
2018-10-18T05:05:52.060Z,99.90
2018-10-18T05:08:21.219Z,99.90
2018-10-18T05:10:49.704Z,99.90
2018-10-18T05:13:18.008Z,99.90
2018-10-18T05:15:46.539Z,99.90
2018-10-18T05:18:14.795Z,99.90
2018-10-18T05:20:43.287Z,99.90
2018-10-18T05:23:11.527Z,99.90
2018-10-18T05:25:39.832Z,99.90
2018-10-18T05:28:07.987Z,99.90
2018-10-18T05:30:36.217Z,99.90
2018-10-18T05:33:04.680Z,99.90
2018-10-18T05:35:32.890Z,99.90
2018-10-18T05:38:01.091Z,99.90
2018-10-18T05:40:29.382Z,99.90
2018-10-18T05:42:57.600Z,99.90
2018-10-18T05:45:25.825Z,99.90
2018-10-18T05:47:54.060Z,99.90
2018-10-18T05:50:22.284Z,99.90
2018-10-18T05:52:50.495Z,99.90
2018-10-18T05:55:18.738Z,99.90
2018-10-18T05:57:47.000Z,99.90
2018-10-18T06:00:17.560Z,99.90
2018-10-18T06:02:46.136Z,99.90
2018-10-18T06:05:15.620Z,99.90
2018-10-18T06:07:44.348Z,99.90
2018-10-18T06:10:24.690Z,99.90
2018-10-18T06:12:53.163Z,99.90
2018-10-18T06:15:21.996Z,99.90
2018-10-18T06:17:50.303Z,99.90
2018-10-18T06:20:19.209Z,99.90
2018-10-18T06:22:47.505Z,99.90
2018-10-18T06:25:15.878Z,99.90
2018-10-18T06:27:44.067Z,99.90
2018-10-18T06:30:13.664Z,99.90
2018-10-18T06:32:41.995Z,99.90
2018-10-18T06:35:11.884Z,99.90
2018-10-18T06:37:40.118Z,99.90
2018-10-18T06:40:10.760Z,99.90
2018-10-18T06:42:39.456Z,99.90
2018-10-18T06:45:09.672Z,99.90
2018-10-18T06:47:38.185Z,99.90
2018-10-18T06:50:08.294Z,99.90
2018-10-18T06:52:36.568Z,99.90
2018-10-18T06:55:05.536Z,99.90
2018-10-18T06:57:33.883Z,99.90
2018-10-18T07:00:02.338Z,99.90
2018-10-18T07:02:30.440Z,99.90
2018-10-18T07:04:59.149Z,99.90
2018-10-18T07:07:27.461Z,99.90
2018-10-18T07:09:55.708Z,99.90
2018-10-18T07:12:24.007Z,99.90
2018-10-18T07:14:52.300Z,99.90
2018-10-18T07:17:20.589Z,99.90
2018-10-18T07:19:48.845Z,99.90
2018-10-18T07:22:17.401Z,99.90
2018-10-18T07:24:45.678Z,99.90
2018-10-18T07:27:13.989Z,99.90
2018-10-18T07:29:42.280Z,99.90
2018-10-18T07:32:10.542Z,99.90
2018-10-18T07:34:38.825Z,99.90
2018-10-18T07:37:07.144Z,99.90
2018-10-18T07:39:35.430Z,99.90
2018-10-18T07:42:03.885Z,99.90
2018-10-18T07:44:32.092Z,99.90
2018-10-18T07:47:01.342Z,99.90
2018-10-18T07:49:29.628Z,99.90
2018-10-18T07:51:57.904Z,99.90
2018-10-18T07:54:26.192Z,99.90
2018-10-18T07:56:54.492Z,99.80
2018-10-18T07:59:22.769Z,99.70
2018-10-18T08:01:51.038Z,99.60
2018-10-18T08:04:19.308Z,99.50
2018-10-18T08:06:47.582Z,99.40
2018-10-18T08:09:15.856Z,99.30
2018-10-18T08:11:44.208Z,99.10
2018-10-18T08:14:12.521Z,98.80
2018-10-18T08:16:40.912Z,98.80
2018-10-18T08:19:09.180Z,98.70
2018-10-18T08:21:37.627Z,98.60
2018-10-18T08:24:05.927Z,98.50
2018-10-18T08:26:34.184Z,98.40
2018-10-18T08:29:02.548Z,98.30
2018-10-18T08:31:30.867Z,98.20
2018-10-18T08:33:59.220Z,98.00
2018-10-18T08:36:27.792Z,97.80
2018-10-18T08:38:56.141Z,97.60
2018-10-18T08:41:24.448Z,97.50
2018-10-18T08:43:52.828Z,97.30
2018-10-18T08:46:21.081Z,97.10
2018-10-18T08:48:49.363Z,96.90
2018-10-18T08:51:17.648Z,96.80
2018-10-18T08:53:45.932Z,96.70
2018-10-18T08:56:14.236Z,96.50
2018-10-18T08:58:42.547Z,96.40
2018-10-18T09:01:10.912Z,96.20
2018-10-18T09:03:39.132Z,96.00
2018-10-18T09:06:07.427Z,95.90
2018-10-18T09:08:35.704Z,95.70
2018-10-18T09:11:04.028Z,95.50
2018-10-18T09:13:32.296Z,95.30
2018-10-18T09:16:00.616Z,95.10
2018-10-18T09:18:28.856Z,94.90
2018-10-18T09:20:57.131Z,94.70
2018-10-18T09:23:25.436Z,94.60
2018-10-18T09:25:53.707Z,94.30
2018-10-18T09:28:22.021Z,94.00
2018-10-18T09:30:50.307Z,93.70
2018-10-18T09:33:18.672Z,93.30
2018-10-18T09:35:46.999Z,93.10
2018-10-18T09:38:15.376Z,92.80
2018-10-18T09:40:43.683Z,92.60
2018-10-18T09:43:12.002Z,92.40
2018-10-18T09:45:40.232Z,92.20
2018-10-18T09:48:08.523Z,92.00
2018-10-18T09:50:36.848Z,91.70
2018-10-18T09:53:05.328Z,91.60
2018-10-18T09:55:33.707Z,91.50
2018-10-18T09:58:01.935Z,91.30
2018-10-18T10:00:35.384Z,91.20
2018-10-18T10:03:09.070Z,90.90
2018-10-18T10:05:37.372Z,90.90
2018-10-18T10:08:05.920Z,90.80
2018-10-18T10:10:34.292Z,90.70
2018-10-18T10:13:02.613Z,90.60
2018-10-18T10:15:30.910Z,90.60
2018-10-18T10:17:59.210Z,90.40
2018-10-18T10:20:27.475Z,90.20
2018-10-18T10:22:56.100Z,90.20
2018-10-18T10:25:24.459Z,90.20
2018-10-18T10:27:52.901Z,90.10
2018-10-18T10:30:21.400Z,89.90
2018-10-18T10:32:49.611Z,89.40
2018-10-18T10:35:18.308Z,89.10
2018-10-18T10:37:46.542Z,88.70
2018-10-18T10:40:14.921Z,88.10
2018-10-18T10:42:43.187Z,87.70
2018-10-18T10:45:12.312Z,87.40
2018-10-18T10:47:40.576Z,87.10
2018-10-18T10:50:09.452Z,86.60
2018-10-18T10:52:38.186Z,86.50
2018-10-18T10:55:07.500Z,86.20
2018-10-18T10:57:35.824Z,85.80
2018-10-18T11:00:04.183Z,85.50
2018-10-18T11:02:32.484Z,85.20
2018-10-18T11:05:00.776Z,85.00
2018-10-18T11:07:29.076Z,84.80
2018-10-18T11:09:57.343Z,84.60
2018-10-18T11:12:25.630Z,84.40
2018-10-18T11:14:53.913Z,84.20
2018-10-18T11:17:22.293Z,83.90
2018-10-18T11:19:50.517Z,83.60
2018-10-18T11:22:18.901Z,83.30
2018-10-18T11:24:47.265Z,83.10
2018-10-18T11:27:15.609Z,82.60
2018-10-18T11:29:43.827Z,82.10
2018-10-18T11:32:12.210Z,82.00
2018-10-18T11:34:40.388Z,81.80
2018-10-18T11:37:08.660Z,81.90
2018-10-18T11:39:36.992Z,81.60
2018-10-18T11:42:05.837Z,81.20
2018-10-18T11:44:39.008Z,80.80
2018-10-18T11:47:07.612Z,80.70
2018-10-18T11:49:35.979Z,81.00
2018-10-18T11:52:04.675Z,80.10
2018-10-18T11:54:32.848Z,80.00
2018-10-18T11:57:01.189Z,79.70
2018-10-18T11:59:29.455Z,79.40
2018-10-18T12:01:57.782Z,79.40
2018-10-18T12:04:26.063Z,79.40
2018-10-18T12:06:54.535Z,79.00
2018-10-18T12:09:22.849Z,78.70
2018-10-18T12:11:51.233Z,78.60
2018-10-18T12:14:19.624Z,78.50
2018-10-18T12:16:47.917Z,78.30
2018-10-18T12:19:16.237Z,78.00
2018-10-18T12:21:44.515Z,77.70
2018-10-18T12:24:13.211Z,77.40
2018-10-18T12:26:41.557Z,76.80
2018-10-18T12:29:09.886Z,76.50
2018-10-18T12:31:38.157Z,76.30
2018-10-18T12:34:06.483Z,75.70
2018-10-18T12:36:34.759Z,75.30
2018-10-18T12:39:04.001Z,74.60
2018-10-18T12:41:32.641Z,74.10
2018-10-18T12:44:00.923Z,73.80
2018-10-18T12:46:29.207Z,73.40
2018-10-18T12:48:57.539Z,72.70
2018-10-18T12:51:25.809Z,72.50
2018-10-18T12:53:54.224Z,72.50
2018-10-18T12:56:22.540Z,72.30
2018-10-18T12:58:50.828Z,72.20
2018-10-18T13:01:19.127Z,72.00
2018-10-18T13:03:47.465Z,71.90
2018-10-18T13:06:16.340Z,71.50
2018-10-18T13:08:44.616Z,71.20
2018-10-18T13:11:13.168Z,71.10
2018-10-18T13:13:41.480Z,70.90
2018-10-18T13:16:09.746Z,71.00
2018-10-18T13:18:38.327Z,70.90
2018-10-18T13:21:06.588Z,70.60
2018-10-18T13:23:34.845Z,70.50
2018-10-18T13:26:03.201Z,70.30
2018-10-18T13:28:31.431Z,69.70
2018-10-18T13:30:59.715Z,69.50
2018-10-18T13:33:27.980Z,69.70
2018-10-18T13:35:56.312Z,69.50
2018-10-18T13:38:24.612Z,69.20
2018-10-18T13:40:53.027Z,68.80
2018-10-18T13:43:21.431Z,68.60
2018-10-18T13:45:49.734Z,69.20
2018-10-18T13:48:18.164Z,67.90
2018-10-18T13:50:46.319Z,67.60
2018-10-18T13:53:14.639Z,67.30
2018-10-18T13:55:42.923Z,66.90
2018-10-18T13:58:11.459Z,66.70
2018-10-18T14:00:39.746Z,66.80
2018-10-18T14:03:08.071Z,66.70
2018-10-18T14:05:36.534Z,66.60
2018-10-18T14:08:04.786Z,66.40
2018-10-18T14:10:33.032Z,66.00
2018-10-18T14:13:01.339Z,66.10
2018-10-18T14:15:29.616Z,66.00
2018-10-18T14:17:57.928Z,65.60
2018-10-18T14:20:26.216Z,65.10
2018-10-18T14:22:54.532Z,64.90
2018-10-18T14:25:22.776Z,64.80
2018-10-18T14:27:51.144Z,64.80
2018-10-18T14:30:19.466Z,65.00
2018-10-18T14:32:47.793Z,65.30
2018-10-18T14:35:16.485Z,65.40
2018-10-18T14:37:44.679Z,65.60
2018-10-18T14:40:13.101Z,65.60
2018-10-18T14:42:41.384Z,65.80
2018-10-18T14:45:09.795Z,66.00
2018-10-18T14:47:38.086Z,66.30
2018-10-18T14:50:08.350Z,66.70
2018-10-18T14:52:36.605Z,67.00
2018-10-18T14:55:05.440Z,67.10
2018-10-18T14:57:33.860Z,67.20
2018-10-18T15:00:02.165Z,67.30
2018-10-18T15:02:30.440Z,67.50
2018-10-18T15:04:58.790Z,67.50
2018-10-18T15:07:27.064Z,68.20
2018-10-18T15:09:55.393Z,67.70
2018-10-18T15:12:23.692Z,68.00
2018-10-18T15:14:51.972Z,68.20
2018-10-18T15:17:20.268Z,68.10
2018-10-18T15:19:48.579Z,68.30
2018-10-18T15:22:16.889Z,68.30
2018-10-18T15:24:45.179Z,68.50
2018-10-18T15:27:14.008Z,68.40
2018-10-18T15:29:42.263Z,68.40
2018-10-18T15:32:10.581Z,68.50
2018-10-18T15:34:38.856Z,68.50
2018-10-18T15:37:07.152Z,68.60
2018-10-18T15:39:35.511Z,68.70
2018-10-18T15:42:04.183Z,68.70
2018-10-18T15:44:32.605Z,68.80
2018-10-18T15:47:00.972Z,69.00
2018-10-18T15:49:29.292Z,69.30
2018-10-18T15:51:57.588Z,69.70
2018-10-18T15:54:26.065Z,70.20
2018-10-18T15:56:54.239Z,70.70
2018-10-18T15:59:22.557Z,71.50
2018-10-18T16:01:51.007Z,71.90
2018-10-18T16:04:19.297Z,72.50
2018-10-18T16:06:47.595Z,72.90
2018-10-18T16:09:15.879Z,73.30
2018-10-18T16:11:44.182Z,73.80
2018-10-18T16:14:12.577Z,74.30
2018-10-18T16:16:40.811Z,74.80
2018-10-18T16:19:09.092Z,75.30
2018-10-18T16:21:37.637Z,76.30
2018-10-18T16:24:06.189Z,76.00
2018-10-18T16:26:34.606Z,76.50
2018-10-18T16:29:02.895Z,76.90
2018-10-18T16:31:31.217Z,77.60
2018-10-18T16:33:59.714Z,78.30
2018-10-18T16:36:27.895Z,78.70
2018-10-18T16:38:56.237Z,79.20
2018-10-18T16:41:24.782Z,79.90
2018-10-18T16:43:52.968Z,80.50
2018-10-18T16:46:21.188Z,80.80
2018-10-18T16:48:49.811Z,81.30
2018-10-18T16:51:18.157Z,81.60
2018-10-18T16:53:46.509Z,82.00
2018-10-18T16:56:14.906Z,82.40
2018-10-18T16:58:43.126Z,83.80
2018-10-18T17:01:11.427Z,83.40
2018-10-18T17:03:39.692Z,83.70
2018-10-18T17:06:08.296Z,83.90
2018-10-18T17:08:36.476Z,84.30
2018-10-18T17:11:05.061Z,84.50
2018-10-18T17:13:33.337Z,84.80
2018-10-18T17:16:01.703Z,85.20
2018-10-18T17:18:30.035Z,85.50
2018-10-18T17:20:58.249Z,85.80
2018-10-18T17:23:26.568Z,86.00
2018-10-18T17:25:54.909Z,86.10
2018-10-18T17:28:23.130Z,86.40
2018-10-18T17:30:51.481Z,86.70
2018-10-18T17:33:19.880Z,87.00
2018-10-18T17:35:48.339Z,87.40
2018-10-18T17:38:16.732Z,87.80
2018-10-18T17:40:45.070Z,88.20
2018-10-18T17:43:13.236Z,88.70
2018-10-18T17:45:41.547Z,89.00
2018-10-18T17:48:09.875Z,89.40
2018-10-18T17:50:38.377Z,89.90
2018-10-18T17:53:06.809Z,90.10
2018-10-18T17:55:35.050Z,90.30
2018-10-18T17:58:03.794Z,90.60
2018-10-18T18:00:32.079Z,90.90
2018-10-18T18:03:00.364Z,91.10
2018-10-18T18:05:28.780Z,91.40
2018-10-18T18:07:57.088Z,91.80
2018-10-18T18:10:25.381Z,92.10
2018-10-18T18:12:53.794Z,92.30
2018-10-18T18:15:22.112Z,92.60
2018-10-18T18:17:50.424Z,92.80
2018-10-18T18:20:18.732Z,93.10
2018-10-18T18:22:47.094Z,93.30
2018-10-18T18:25:15.444Z,93.50
2018-10-18T18:27:43.673Z,93.80
2018-10-18T18:30:13.291Z,94.00
2018-10-18T18:32:41.912Z,94.30
2018-10-18T18:35:10.168Z,94.50
2018-10-18T18:37:38.375Z,94.70
2018-10-18T18:40:07.838Z,94.90
2018-10-18T18:42:36.101Z,95.20
2018-10-18T18:45:09.905Z,95.30
2018-10-18T18:47:38.076Z,95.40
2018-10-18T18:50:06.596Z,95.60
2018-10-18T18:52:35.041Z,95.80
2018-10-18T18:55:03.284Z,95.90
2018-10-18T18:57:31.556Z,96.00
2018-10-18T18:59:59.812Z,96.20
2018-10-18T19:02:28.077Z,96.30
2018-10-18T19:04:56.364Z,96.50
2018-10-18T19:07:25.338Z,96.60
2018-10-18T19:09:53.837Z,96.70
2018-10-18T19:12:22.069Z,97.10
2018-10-18T19:14:50.340Z,96.90
2018-10-18T19:17:18.560Z,97.00
2018-10-18T19:19:46.796Z,97.10
2018-10-18T19:22:15.036Z,97.30
2018-10-18T19:24:43.271Z,97.50
2018-10-18T19:27:11.516Z,97.60
2018-10-18T19:29:39.822Z,97.70
2018-10-18T19:32:08.135Z,97.80
2018-10-18T19:34:36.291Z,98.00
2018-10-18T19:37:04.627Z,98.10
2018-10-18T19:39:33.140Z,98.20
2018-10-18T19:42:01.377Z,98.30
2018-10-18T19:44:29.596Z,98.50
2018-10-18T19:46:57.850Z,98.60
2018-10-18T19:49:26.108Z,98.60
2018-10-18T19:51:54.433Z,98.90
2018-10-18T19:54:22.711Z,98.90
2018-10-18T19:56:51.176Z,99.00
2018-10-18T19:59:19.614Z,99.10
2018-10-18T20:01:47.864Z,99.20
2018-10-18T20:04:16.716Z,99.30
2018-10-18T20:06:45.014Z,99.40
2018-10-18T20:09:13.619Z,99.50
2018-10-18T20:11:42.433Z,99.60
2018-10-18T20:14:10.876Z,99.70
2018-10-18T20:16:38.994Z,99.80
2018-10-18T20:19:07.311Z,99.80
2018-10-18T20:21:35.558Z,99.90
2018-10-18T20:24:03.923Z,99.90
2018-10-18T20:26:32.134Z,99.90
2018-10-18T20:29:00.436Z,99.90
2018-10-18T20:31:28.652Z,99.90
2018-10-18T20:33:56.872Z,99.90
2018-10-18T20:36:25.118Z,99.90
2018-10-18T20:38:53.362Z,99.90
2018-10-18T20:41:21.739Z,99.90
2018-10-18T20:43:49.941Z,99.90
2018-10-18T20:46:18.165Z,99.90
2018-10-18T20:48:46.482Z,99.90
2018-10-18T20:51:14.746Z,99.90
2018-10-18T20:53:42.945Z,99.90
2018-10-18T20:56:11.151Z,99.90
2018-10-18T20:58:39.434Z,99.90
2018-10-18T21:01:07.642Z,99.90
2018-10-18T21:03:35.900Z,99.90
2018-10-18T21:06:04.267Z,99.90
2018-10-18T21:08:32.373Z,99.90
2018-10-18T21:11:00.684Z,99.90
2018-10-18T21:13:28.883Z,99.90
2018-10-18T21:15:57.123Z,99.90
2018-10-18T21:18:25.340Z,99.90
2018-10-18T21:20:53.600Z,99.90
2018-10-18T21:23:21.808Z,99.90
2018-10-18T21:25:50.025Z,99.90
2018-10-18T21:28:18.256Z,99.90
2018-10-18T21:30:46.509Z,99.90
2018-10-18T21:33:14.767Z,99.90
2018-10-18T21:35:43.152Z,99.90
2018-10-18T21:38:11.385Z,99.90
2018-10-18T21:40:39.685Z,99.90
2018-10-18T21:43:07.888Z,99.90
2018-10-18T21:45:36.116Z,99.90
2018-10-18T21:48:04.759Z,99.90
2018-10-18T21:50:32.977Z,99.90
2018-10-18T21:53:01.208Z,99.90
2018-10-18T21:55:29.399Z,99.90
2018-10-18T21:57:57.668Z,99.90
2018-10-18T22:00:26.080Z,99.90
2018-10-18T22:02:54.330Z,99.90
2018-10-18T22:05:22.576Z,99.90
2018-10-18T22:07:50.767Z,99.90
2018-10-18T22:10:19.048Z,99.90
2018-10-18T22:12:47.304Z,99.90
2018-10-18T22:15:15.594Z,99.90
2018-10-18T22:17:43.812Z,99.90
2018-10-18T22:20:12.016Z,99.90
2018-10-18T22:22:40.236Z,99.90
2018-10-18T22:25:09.197Z,99.90
2018-10-18T22:27:37.404Z,99.90
2018-10-18T22:30:06.651Z,99.90
2018-10-18T22:32:34.868Z,99.90
2018-10-18T22:35:03.156Z,99.90
2018-10-18T22:37:31.288Z,99.90
2018-10-18T22:39:59.496Z,99.90
2018-10-18T22:42:27.725Z,99.90
2018-10-18T22:44:56.064Z,99.90
2018-10-18T22:47:24.206Z,99.90
2018-10-18T22:49:52.443Z,99.90
2018-10-18T22:52:20.812Z,99.90
2018-10-18T22:54:49.076Z,99.90
2018-10-18T22:57:17.463Z,99.90
2018-10-18T22:59:45.641Z,99.90
2018-10-18T23:02:13.931Z,99.90
2018-10-18T23:04:42.104Z,99.90
2018-10-18T23:07:10.512Z,99.90
2018-10-18T23:09:38.736Z,99.90
2018-10-18T23:12:06.955Z,99.90
2018-10-18T23:14:35.497Z,99.90
2018-10-18T23:17:03.821Z,99.90
2018-10-18T23:19:31.976Z,99.90
2018-10-18T23:22:00.217Z,99.90
2018-10-18T23:24:28.422Z,99.90
2018-10-18T23:26:56.646Z,99.90
2018-10-18T23:29:24.858Z,99.90
2018-10-18T23:31:53.193Z,99.90
2018-10-18T23:34:21.414Z,99.90
2018-10-18T23:36:49.636Z,99.90
2018-10-18T23:39:17.949Z,99.90
2018-10-18T23:41:46.178Z,99.90
2018-10-18T23:44:14.399Z,99.90
2018-10-18T23:46:42.841Z,99.90
2018-10-18T23:49:11.033Z,99.90
2018-10-18T23:51:39.242Z,99.90
2018-10-18T23:54:07.450Z,99.90
2018-10-18T23:56:35.640Z,99.90
2018-10-18T23:59:03.925Z,99.90
